sensor_id;sensor_type;location;lat;lon;timestamp;pressure;altitude;pressure_sealevel;temperature;humidity
20019;BME280;10170;42.502;26.526;2022-08-30T00:02:05;99558.16;;;23.08;100.00
20019;BME280;10170;42.502;26.526;2022-08-30T00:04:32;99541.28;;;22.87;100.00
20019;BME280;10170;42.502;26.526;2022-08-30T00:07:00;99553.81;;;23.07;100.00
20019;BME280;10170;42.502;26.526;2022-08-30T00:09:30;99562.22;;;23.06;100.00
20019;BME280;10170;42.502;26.526;2022-08-30T00:11:58;99566.50;;;23.12;100.00
20019;BME280;10170;42.502;26.526;2022-08-30T00:14:25;99565.38;;;22.94;100.00
20019;BME280;10170;42.502;26.526;2022-08-30T00:16:53;99558.06;;;22.89;100.00
20019;BME280;10170;42.502;26.526;2022-08-30T00:19:20;99557.97;;;22.99;100.00
20019;BME280;10170;42.502;26.526;2022-08-30T00:21:47;99566.56;;;23.07;100.00
20019;BME280;10170;42.502;26.526;2022-08-30T00:24:14;99552.50;;;23.05;100.00
20019;BME280;10170;42.502;26.526;2022-08-30T00:26:41;99546.19;;;23.09;100.00
20019;BME280;10170;42.502;26.526;2022-08-30T00:29:08;99542.09;;;23.12;100.00
20019;BME280;10170;42.502;26.526;2022-08-30T00:31:34;99552.50;;;23.05;100.00
20019;BME280;10170;42.502;26.526;2022-08-30T00:34:01;99557.63;;;23.06;100.00
20019;BME280;10170;42.502;26.526;2022-08-30T00:36:28;99553.19;;;23.15;100.00
20019;BME280;10170;42.502;26.526;2022-08-30T00:38:55;99552.88;;;23.17;100.00
20019;BME280;10170;42.502;26.526;2022-08-30T00:41:22;99552.13;;;23.11;100.00
20019;BME280;10170;42.502;26.526;2022-08-30T00:43:49;99552.59;;;22.94;100.00
20019;BME280;10170;42.502;26.526;2022-08-30T00:46:15;99550.22;;;22.88;100.00
20019;BME280;10170;42.502;26.526;2022-08-30T00:48:44;99551.81;;;22.94;100.00
20019;BME280;10170;42.502;26.526;2022-08-30T00:51:14;99548.03;;;22.90;100.00
20019;BME280;10170;42.502;26.526;2022-08-30T00:53:46;99550.44;;;22.68;100.00
20019;BME280;10170;42.502;26.526;2022-08-30T00:56:14;99548.09;;;22.28;100.00
20019;BME280;10170;42.502;26.526;2022-08-30T00:58:44;99554.78;;;22.07;100.00
20019;BME280;10170;42.502;26.526;2022-08-30T01:01:12;99554.03;;;22.01;100.00
20019;BME280;10170;42.502;26.526;2022-08-30T01:03:40;99554.03;;;22.01;100.00
20019;BME280;10170;42.502;26.526;2022-08-30T01:06:09;99550.94;;;21.79;100.00
20019;BME280;10170;42.502;26.526;2022-08-30T01:08:36;99551.72;;;21.74;100.00
20019;BME280;10170;42.502;26.526;2022-08-30T01:11:04;99557.69;;;21.28;100.00
20019;BME280;10170;42.502;26.526;2022-08-30T01:13:32;99549.91;;;21.11;100.00
20019;BME280;10170;42.502;26.526;2022-08-30T01:18:28;99542.03;;;21.20;100.00
20019;BME280;10170;42.502;26.526;2022-08-30T01:23:49;99551.50;;;21.17;100.00
20019;BME280;10170;42.502;26.526;2022-08-30T01:26:17;99559.06;;;21.20;100.00
20019;BME280;10170;42.502;26.526;2022-08-30T01:28:51;99552.00;;;21.29;100.00
20019;BME280;10170;42.502;26.526;2022-08-30T01:31:20;99549.31;;;21.24;100.00
20019;BME280;10170;42.502;26.526;2022-08-30T01:33:47;99548.03;;;21.02;100.00
20019;BME280;10170;42.502;26.526;2022-08-30T01:36:14;99551.84;;;21.01;100.00
20019;BME280;10170;42.502;26.526;2022-08-30T01:38:54;99541.34;;;20.74;100.00
20019;BME280;10170;42.502;26.526;2022-08-30T01:41:25;99542.13;;;20.79;100.00
20019;BME280;10170;42.502;26.526;2022-08-30T01:43:55;99535.34;;;20.87;100.00
20019;BME280;10170;42.502;26.526;2022-08-30T01:46:25;99542.13;;;20.89;100.00
20019;BME280;10170;42.502;26.526;2022-08-30T01:48:53;99525.34;;;20.87;100.00
20019;BME280;10170;42.502;26.526;2022-08-30T01:51:24;99532.06;;;21.05;100.00
20019;BME280;10170;42.502;26.526;2022-08-30T01:53:51;99528.84;;;21.03;100.00
20019;BME280;10170;42.502;26.526;2022-08-30T01:56:18;99539.13;;;21.06;100.00
20019;BME280;10170;42.502;26.526;2022-08-30T01:58:45;99549.63;;;21.13;100.00
20019;BME280;10170;42.502;26.526;2022-08-30T02:01:14;99552.91;;;21.10;100.00
20019;BME280;10170;42.502;26.526;2022-08-30T02:03:43;99563.75;;;20.89;100.00
20019;BME280;10170;42.502;26.526;2022-08-30T02:06:14;99550.69;;;21.17;100.00
20019;BME280;10170;42.502;26.526;2022-08-30T02:08:42;99557.69;;;21.23;100.00
20019;BME280;10170;42.502;26.526;2022-08-30T02:11:10;99556.09;;;21.22;100.00
20019;BME280;10170;42.502;26.526;2022-08-30T02:13:40;99560.47;;;21.08;100.00
20019;BME280;10170;42.502;26.526;2022-08-30T02:16:10;99561.81;;;21.15;100.00
20019;BME280;10170;42.502;26.526;2022-08-30T02:18:39;99556.75;;;20.78;100.00
20019;BME280;10170;42.502;26.526;2022-08-30T02:21:07;99558.94;;;20.56;100.00
20019;BME280;10170;42.502;26.526;2022-08-30T02:23:35;99561.13;;;20.44;100.00
20019;BME280;10170;42.502;26.526;2022-08-30T02:26:03;99570.31;;;20.43;100.00
20019;BME280;10170;42.502;26.526;2022-08-30T02:28:30;99567.63;;;20.28;100.00
20019;BME280;10170;42.502;26.526;2022-08-30T02:30:57;99563.28;;;20.22;100.00
20019;BME280;10170;42.502;26.526;2022-08-30T02:33:24;99566.25;;;20.16;100.00
20019;BME280;10170;42.502;26.526;2022-08-30T02:35:51;99567.06;;;20.11;100.00
20019;BME280;10170;42.502;26.526;2022-08-30T02:38:18;99562.72;;;20.10;100.00
20019;BME280;10170;42.502;26.526;2022-08-30T02:40:45;99569.72;;;20.06;100.00
20019;BME280;10170;42.502;26.526;2022-08-30T02:43:12;99567.56;;;20.03;100.00
20019;BME280;10170;42.502;26.526;2022-08-30T02:45:39;99553.53;;;20.01;100.00
20019;BME280;10170;42.502;26.526;2022-08-30T02:48:06;99547.03;;;19.97;100.00
20019;BME280;10170;42.502;26.526;2022-08-30T02:50:33;99564.09;;;20.28;100.00
20019;BME280;10170;42.502;26.526;2022-08-30T02:53:00;99577.06;;;20.56;100.00
20019;BME280;10170;42.502;26.526;2022-08-30T02:55:27;99562.19;;;20.58;100.00
20019;BME280;10170;42.502;26.526;2022-08-30T02:57:53;99563.22;;;20.72;100.00
20019;BME280;10170;42.502;26.526;2022-08-30T03:00:20;99567.59;;;20.48;100.00
20019;BME280;10170;42.502;26.526;2022-08-30T03:02:47;99564.66;;;20.40;100.00
20019;BME280;10170;42.502;26.526;2022-08-30T03:05:16;99570.56;;;20.42;100.00
20019;BME280;10170;42.502;26.526;2022-08-30T03:07:43;99556.00;;;20.28;100.00
20019;BME280;10170;42.502;26.526;2022-08-30T03:10:12;99566.81;;;20.23;100.00
20019;BME280;10170;42.502;26.526;2022-08-30T03:12:40;99555.16;;;20.07;100.00
20019;BME280;10170;42.502;26.526;2022-08-30T03:15:09;99563.28;;;20.07;100.00
20019;BME280;10170;42.502;26.526;2022-08-30T03:17:36;99571.38;;;20.02;100.00
20019;BME280;10170;42.502;26.526;2022-08-30T03:20:04;99563.78;;;19.94;100.00
20019;BME280;10170;42.502;26.526;2022-08-30T03:22:31;99571.34;;;19.97;100.00
20019;BME280;10170;42.502;26.526;2022-08-30T03:25:00;99572.69;;;19.79;100.00
20019;BME280;10170;42.502;26.526;2022-08-30T03:27:28;99582.66;;;19.74;100.00
20019;BME280;10170;42.502;26.526;2022-08-30T03:29:55;99582.13;;;19.77;100.00
20019;BME280;10170;42.502;26.526;2022-08-30T03:32:23;99582.34;;;19.60;100.00
20019;BME280;10170;42.502;26.526;2022-08-30T03:34:50;99561.81;;;19.44;100.00
20019;BME280;10170;42.502;26.526;2022-08-30T03:37:16;99580.44;;;19.51;100.00
20019;BME280;10170;42.502;26.526;2022-08-30T03:39:43;99583.13;;;19.56;100.00
20019;BME280;10170;42.502;26.526;2022-08-30T03:42:11;99591.75;;;19.48;100.00
20019;BME280;10170;42.502;26.526;2022-08-30T03:44:38;99590.16;;;19.57;100.00
20019;BME280;10170;42.502;26.526;2022-08-30T03:47:05;99598.03;;;19.73;100.00
20019;BME280;10170;42.502;26.526;2022-08-30T03:49:34;99581.84;;;19.73;100.00
20019;BME280;10170;42.502;26.526;2022-08-30T03:52:02;99594.53;;;19.83;100.00
20019;BME280;10170;42.502;26.526;2022-08-30T03:54:29;99591.28;;;19.61;100.00
20019;BME280;10170;42.502;26.526;2022-08-30T03:56:57;99603.88;;;19.50;100.00
20019;BME280;10170;42.502;26.526;2022-08-30T03:59:24;99596.91;;;19.54;100.00
20019;BME280;10170;42.502;26.526;2022-08-30T04:01:50;99597.22;;;19.68;100.00
20019;BME280;10170;42.502;26.526;2022-08-30T04:04:17;99606.38;;;19.72;100.00
20019;BME280;10170;42.502;26.526;2022-08-30T04:06:47;99615.06;;;19.89;100.00
20019;BME280;10170;42.502;26.526;2022-08-30T04:09:15;99608.63;;;20.05;100.00
20019;BME280;10170;42.502;26.526;2022-08-30T04:11:41;99601.31;;;19.90;100.00
20019;BME280;10170;42.502;26.526;2022-08-30T04:14:08;99626.41;;;20.01;100.00
20019;BME280;10170;42.502;26.526;2022-08-30T04:16:35;99615.94;;;20.15;100.00
20019;BME280;10170;42.502;26.526;2022-08-30T04:19:02;99622.72;;;20.32;100.00
20019;BME280;10170;42.502;26.526;2022-08-30T04:21:29;99619.47;;;20.35;100.00
20019;BME280;10170;42.502;26.526;2022-08-30T04:23:56;99607.59;;;20.46;100.00
20019;BME280;10170;42.502;26.526;2022-08-30T04:26:25;99632.41;;;20.83;100.00
20019;BME280;10170;42.502;26.526;2022-08-30T04:28:55;99605.63;;;20.87;100.00
20019;BME280;10170;42.502;26.526;2022-08-30T04:31:22;99627.25;;;20.97;100.00
20019;BME280;10170;42.502;26.526;2022-08-30T04:33:49;99634.81;;;21.10;100.00
20019;BME280;10170;42.502;26.526;2022-08-30T04:36:16;99625.94;;;20.69;100.00
20019;BME280;10170;42.502;26.526;2022-08-30T04:38:42;99613.78;;;20.67;100.00
20019;BME280;10170;42.502;26.526;2022-08-30T04:41:15;99628.09;;;20.67;100.00
20019;BME280;10170;42.502;26.526;2022-08-30T04:43:44;99632.44;;;20.58;100.00
20019;BME280;10170;42.502;26.526;2022-08-30T04:46:11;99639.44;;;20.89;100.00
20019;BME280;10170;42.502;26.526;2022-08-30T04:48:41;99626.38;;;21.27;100.00
20019;BME280;10170;42.502;26.526;2022-08-30T04:51:11;99627.72;;;21.34;100.00
20019;BME280;10170;42.502;26.526;2022-08-30T04:53:40;99642.03;;;21.40;100.00
20019;BME280;10170;42.502;26.526;2022-08-30T04:56:17;99649.22;;;21.64;100.00
20019;BME280;10170;42.502;26.526;2022-08-30T04:58:46;99643.75;;;21.84;100.00
20019;BME280;10170;42.502;26.526;2022-08-30T05:01:16;99647.25;;;21.90;100.00
20019;BME280;10170;42.502;26.526;2022-08-30T05:03:46;99636.94;;;21.87;100.00
20019;BME280;10170;42.502;26.526;2022-08-30T05:06:13;99634.81;;;21.84;100.00
20019;BME280;10170;42.502;26.526;2022-08-30T05:08:40;99629.84;;;21.96;100.00
20019;BME280;10170;42.502;26.526;2022-08-30T05:11:12;99636.78;;;22.12;100.00
20019;BME280;10170;42.502;26.526;2022-08-30T05:13:40;99642.69;;;22.24;100.00
20019;BME280;10170;42.502;26.526;2022-08-30T05:16:07;99648.41;;;22.18;100.00
20019;BME280;10170;42.502;26.526;2022-08-30T05:18:35;99637.41;;;22.04;100.00
20019;BME280;10170;42.502;26.526;2022-08-30T05:23:30;99638.50;;;22.75;100.00
20019;BME280;10170;42.502;26.526;2022-08-30T05:25:57;99643.00;;;23.14;100.00
20019;BME280;10170;42.502;26.526;2022-08-30T05:28:24;99650.13;;;23.57;100.00
20019;BME280;10170;42.502;26.526;2022-08-30T05:30:51;99655.16;;;23.45;100.00
20019;BME280;10170;42.502;26.526;2022-08-30T05:33:18;99647.28;;;23.67;100.00
20019;BME280;10170;42.502;26.526;2022-08-30T05:35:45;99640.63;;;23.96;100.00
20019;BME280;10170;42.502;26.526;2022-08-30T05:38:12;99644.19;;;24.66;100.00
20019;BME280;10170;42.502;26.526;2022-08-30T05:40:40;99644.13;;;25.31;100.00
20019;BME280;10170;42.502;26.526;2022-08-30T05:43:08;99649.75;;;25.88;100.00
20019;BME280;10170;42.502;26.526;2022-08-30T05:45:36;99654.56;;;26.19;100.00
20019;BME280;10170;42.502;26.526;2022-08-30T05:48:04;99654.34;;;26.01;100.00
20019;BME280;10170;42.502;26.526;2022-08-30T05:50:30;99659.41;;;25.94;100.00
20019;BME280;10170;42.502;26.526;2022-08-30T05:53:00;99647.59;;;25.99;100.00
20019;BME280;10170;42.502;26.526;2022-08-30T05:55:26;99664.59;;;26.32;100.00
20019;BME280;10170;42.502;26.526;2022-08-30T05:57:53;99653.03;;;26.13;100.00
20019;BME280;10170;42.502;26.526;2022-08-30T06:00:20;99659.09;;;26.45;100.00
20019;BME280;10170;42.502;26.526;2022-08-30T06:02:52;99576.44;;;26.00;100.00
20019;BME280;10170;42.502;26.526;2022-08-30T06:05:19;99664.91;;;26.96;100.00
20019;BME280;10170;42.502;26.526;2022-08-30T06:07:46;99668.00;;;27.34;100.00
20019;BME280;10170;42.502;26.526;2022-08-30T06:10:13;99658.91;;;27.17;100.00
20019;BME280;10170;42.502;26.526;2022-08-30T06:12:42;99662.66;;;27.68;96.34
20019;BME280;10170;42.502;26.526;2022-08-30T06:15:09;99660.97;;;27.42;100.00
20019;BME280;10170;42.502;26.526;2022-08-30T06:17:36;99668.28;;;27.63;98.50
20019;BME280;10170;42.502;26.526;2022-08-30T06:20:05;99666.19;;;27.69;99.88
20019;BME280;10170;42.502;26.526;2022-08-30T06:22:32;99672.19;;;27.79;90.01
20019;BME280;10170;42.502;26.526;2022-08-30T06:24:59;99664.53;;;28.16;84.78
20019;BME280;10170;42.502;26.526;2022-08-30T06:27:26;99668.75;;;28.30;85.13
20019;BME280;10170;42.502;26.526;2022-08-30T06:29:53;99666.47;;;28.07;86.94
20019;BME280;10170;42.502;26.526;2022-08-30T06:32:20;99674.69;;;28.41;80.58
20019;BME280;10170;42.502;26.526;2022-08-30T06:34:47;99678.06;;;28.63;80.78
20019;BME280;10170;42.502;26.526;2022-08-30T06:37:14;99664.53;;;28.75;78.12
20019;BME280;10170;42.502;26.526;2022-08-30T06:39:56;99679.66;;;28.81;76.86
20019;BME280;10170;42.502;26.526;2022-08-30T06:42:23;99674.56;;;29.26;71.82
20019;BME280;10170;42.502;26.526;2022-08-30T06:45:00;99669.75;;;29.06;75.53
20019;BME280;10170;42.502;26.526;2022-08-30T06:47:28;99678.78;;;29.15;76.31
20019;BME280;10170;42.502;26.526;2022-08-30T06:49:56;99681.16;;;29.71;71.72
20019;BME280;10170;42.502;26.526;2022-08-30T06:52:23;99685.13;;;30.12;68.50
20019;BME280;10170;42.502;26.526;2022-08-30T06:54:50;99682.19;;;30.37;67.49
20019;BME280;10170;42.502;26.526;2022-08-30T06:57:19;99687.75;;;30.49;65.11
20019;BME280;10170;42.502;26.526;2022-08-30T06:59:46;99683.88;;;31.16;64.09
20019;BME280;10170;42.502;26.526;2022-08-30T07:02:12;99687.38;;;31.04;63.81
20019;BME280;10170;42.502;26.526;2022-08-30T07:04:40;99669.25;;;30.91;64.42
20019;BME280;10170;42.502;26.526;2022-08-30T07:07:09;99679.69;;;30.65;66.18
20019;BME280;10170;42.502;26.526;2022-08-30T07:09:36;99679.59;;;30.94;63.65
20019;BME280;10170;42.502;26.526;2022-08-30T07:12:10;99668.78;;;30.89;63.49
20019;BME280;10170;42.502;26.526;2022-08-30T07:14:37;99677.41;;;30.99;61.85
20019;BME280;10170;42.502;26.526;2022-08-30T07:17:05;99674.81;;;31.03;61.67
20019;BME280;10170;42.502;26.526;2022-08-30T07:19:57;99683.94;;;31.40;62.16
20019;BME280;10170;42.502;26.526;2022-08-30T07:22:24;99682.22;;;31.95;60.51
20019;BME280;10170;42.502;26.526;2022-08-30T07:24:51;99674.66;;;31.44;61.41
20019;BME280;10170;42.502;26.526;2022-08-30T07:27:18;99679.00;;;31.93;60.48
20019;BME280;10170;42.502;26.526;2022-08-30T07:29:44;99684.09;;;32.31;60.15
20019;BME280;10170;42.502;26.526;2022-08-30T07:32:11;99663.53;;;32.01;60.20
20019;BME280;10170;42.502;26.526;2022-08-30T07:34:38;99681.06;;;32.76;58.66
20019;BME280;10170;42.502;26.526;2022-08-30T07:37:05;99671.88;;;32.56;57.79
20019;BME280;10170;42.502;26.526;2022-08-30T07:39:32;99683.84;;;32.36;56.79
20019;BME280;10170;42.502;26.526;2022-08-30T07:42:10;99680.06;;;32.41;58.44
20019;BME280;10170;42.502;26.526;2022-08-30T07:44:36;99674.81;;;32.63;57.77
20019;BME280;10170;42.502;26.526;2022-08-30T07:47:03;99680.56;;;33.14;55.01
20019;BME280;10170;42.502;26.526;2022-08-30T07:49:30;99663.78;;;32.36;55.70
20019;BME280;10170;42.502;26.526;2022-08-30T07:51:57;99666.31;;;33.12;53.94
20019;BME280;10170;42.502;26.526;2022-08-30T07:54:24;99675.94;;;33.33;54.86
20019;BME280;10170;42.502;26.526;2022-08-30T07:56:50;99677.22;;;32.92;53.74
20019;BME280;10170;42.502;26.526;2022-08-30T07:59:20;99676.31;;;33.47;53.75
20019;BME280;10170;42.502;26.526;2022-08-30T08:01:47;99676.72;;;33.96;51.92
20019;BME280;10170;42.502;26.526;2022-08-30T08:04:14;99673.84;;;33.92;49.66
20019;BME280;10170;42.502;26.526;2022-08-30T08:06:41;99665.13;;;33.90;50.66
20019;BME280;10170;42.502;26.526;2022-08-30T08:09:08;99667.53;;;34.27;49.55
20019;BME280;10170;42.502;26.526;2022-08-30T08:11:35;99670.22;;;34.80;48.67
20019;BME280;10170;42.502;26.526;2022-08-30T08:14:03;99667.56;;;34.65;48.60
20019;BME280;10170;42.502;26.526;2022-08-30T08:16:31;99672.91;;;34.39;47.97
20019;BME280;10170;42.502;26.526;2022-08-30T08:18:59;99660.28;;;34.38;48.75
20019;BME280;10170;42.502;26.526;2022-08-30T08:21:26;99662.06;;;33.30;50.49
20019;BME280;10170;42.502;26.526;2022-08-30T08:23:53;99660.44;;;33.75;50.65
20019;BME280;10170;42.502;26.526;2022-08-30T08:26:20;99621.03;;;34.10;49.40
20019;BME280;10170;42.502;26.526;2022-08-30T08:28:48;99635.75;;;34.74;46.65
20019;BME280;10170;42.502;26.526;2022-08-30T08:31:21;99661.34;;;34.33;47.08
20019;BME280;10170;42.502;26.526;2022-08-30T08:33:59;99642.09;;;34.75;46.38
20019;BME280;10170;42.502;26.526;2022-08-30T08:36:32;99650.63;;;34.66;47.76
20019;BME280;10170;42.502;26.526;2022-08-30T08:39:00;99658.88;;;34.85;47.45
20019;BME280;10170;42.502;26.526;2022-08-30T08:45:06;99639.47;;;35.50;44.13
20019;BME280;10170;42.502;26.526;2022-08-30T08:47:50;99629.75;;;34.91;45.44
20019;BME280;10170;42.502;26.526;2022-08-30T08:50:21;99632.59;;;35.18;45.10
20019;BME280;10170;42.502;26.526;2022-08-30T08:52:56;99636.88;;;35.60;44.27
20019;BME280;10170;42.502;26.526;2022-08-30T08:56:07;99628.97;;;35.36;44.15
20019;BME280;10170;42.502;26.526;2022-08-30T08:58:52;99632.03;;;35.54;43.91
20019;BME280;10170;42.502;26.526;2022-08-30T09:01:23;99637.56;;;35.54;44.55
20019;BME280;10170;42.502;26.526;2022-08-30T09:03:51;99632.25;;;35.42;43.68
20019;BME280;10170;42.502;26.526;2022-08-30T09:09:34;99630.50;;;36.09;42.63
20019;BME280;10170;42.502;26.526;2022-08-30T09:12:03;99627.09;;;36.22;42.26
20019;BME280;10170;42.502;26.526;2022-08-30T09:14:55;99626.25;;;35.88;42.31
20019;BME280;10170;42.502;26.526;2022-08-30T09:17:24;99619.91;;;35.39;42.97
20019;BME280;10170;42.502;26.526;2022-08-30T09:22:39;99620.66;;;34.30;41.65
20019;BME280;10170;42.502;26.526;2022-08-30T09:27:39;99620.81;;;34.98;41.22
20019;BME280;10170;42.502;26.526;2022-08-30T09:30:24;99612.53;;;34.98;41.34
20019;BME280;10170;42.502;26.526;2022-08-30T09:35:42;99606.88;;;35.14;39.15
20019;BME280;10170;42.502;26.526;2022-08-30T09:40:49;99601.88;;;35.45;38.89
20019;BME280;10170;42.502;26.526;2022-08-30T09:48:45;99605.44;;;35.46;39.99
20019;BME280;10170;42.502;26.526;2022-08-30T09:51:43;99602.19;;;35.92;37.53
20019;BME280;10170;42.502;26.526;2022-08-30T10:03:01;99589.91;;;35.64;37.24
20019;BME280;10170;42.502;26.526;2022-08-30T10:14:26;99587.63;;;34.75;37.21
20019;BME280;10170;42.502;26.526;2022-08-30T10:23:11;99573.19;;;34.63;38.39
20019;BME280;10170;42.502;26.526;2022-08-30T10:25:53;99572.69;;;35.25;37.54
20019;BME280;10170;42.502;26.526;2022-08-30T10:34:03;99555.69;;;35.49;36.63
20019;BME280;10170;42.502;26.526;2022-08-30T10:36:42;99559.19;;;35.46;36.86
20019;BME280;10170;42.502;26.526;2022-08-30T10:39:17;99569.84;;;34.76;37.11
20019;BME280;10170;42.502;26.526;2022-08-30T10:41:52;99561.41;;;35.11;36.63
20019;BME280;10170;42.502;26.526;2022-08-30T10:44:26;99557.03;;;35.62;36.72
20019;BME280;10170;42.502;26.526;2022-08-30T10:49:36;99561.22;;;36.05;34.56
20019;BME280;10170;42.502;26.526;2022-08-30T10:52:30;99563.00;;;35.90;34.62
20019;BME280;10170;42.502;26.526;2022-08-30T10:55:07;99548.78;;;34.27;35.84
20019;BME280;10170;42.502;26.526;2022-08-30T10:57:35;99542.91;;;35.15;35.46
20019;BME280;10170;42.502;26.526;2022-08-30T11:00:10;99541.38;;;35.73;35.41
20019;BME280;10170;42.502;26.526;2022-08-30T11:06:17;99533.53;;;36.05;35.29
20019;BME280;10170;42.502;26.526;2022-08-30T11:14:08;99529.41;;;35.92;34.55
20019;BME280;10170;42.502;26.526;2022-08-30T11:16:40;99538.63;;;34.72;36.83
20019;BME280;10170;42.502;26.526;2022-08-30T11:19:38;99514.75;;;35.10;35.40
20019;BME280;10170;42.502;26.526;2022-08-30T11:22:16;99526.19;;;35.34;35.39
20019;BME280;10170;42.502;26.526;2022-08-30T11:35:43;99490.78;;;35.43;36.08
20019;BME280;10170;42.502;26.526;2022-08-30T11:46:34;99498.53;;;34.85;36.48
20019;BME280;10170;42.502;26.526;2022-08-30T11:49:26;99485.41;;;35.01;37.43
20019;BME280;10170;42.502;26.526;2022-08-30T11:55:20;99486.22;;;34.79;37.54
20019;BME280;10170;42.502;26.526;2022-08-30T12:00:39;99475.25;;;33.61;36.95
20019;BME280;10170;42.502;26.526;2022-08-30T12:11:51;99463.72;;;35.59;34.70
20019;BME280;10170;42.502;26.526;2022-08-30T12:13:54;99466.72;;;35.47;35.22
20019;BME280;10170;42.502;26.526;2022-08-30T12:16:40;99462.47;;;35.57;35.00
20019;BME280;10170;42.502;26.526;2022-08-30T12:19:31;99458.72;;;35.72;33.71
20019;BME280;10170;42.502;26.526;2022-08-30T12:22:01;99464.69;;;34.92;33.45
20019;BME280;10170;42.502;26.526;2022-08-30T12:24:37;99459.03;;;35.08;33.08
20019;BME280;10170;42.502;26.526;2022-08-30T12:27:23;99446.06;;;36.04;32.93
20019;BME280;10170;42.502;26.526;2022-08-30T12:29:57;99449.56;;;35.68;34.63
20019;BME280;10170;42.502;26.526;2022-08-30T12:32:30;99455.09;;;35.97;34.08
20019;BME280;10170;42.502;26.526;2022-08-30T12:35:02;99449.47;;;36.71;32.72
20019;BME280;10170;42.502;26.526;2022-08-30T12:37:36;99436.00;;;36.69;33.63
20019;BME280;10170;42.502;26.526;2022-08-30T12:42:48;99438.38;;;36.67;30.59
20019;BME280;10170;42.502;26.526;2022-08-30T12:45:18;99433.88;;;36.09;29.89
20019;BME280;10170;42.502;26.526;2022-08-30T12:48:02;99431.31;;;36.33;30.10
20019;BME280;10170;42.502;26.526;2022-08-30T12:50:34;99427.53;;;36.08;30.80
20019;BME280;10170;42.502;26.526;2022-08-30T12:53:07;99422.78;;;36.52;30.54
20019;BME280;10170;42.502;26.526;2022-08-30T12:56:10;99426.06;;;37.19;30.15
20019;BME280;10170;42.502;26.526;2022-08-30T12:58:49;99420.59;;;36.75;30.53
20019;BME280;10170;42.502;26.526;2022-08-30T13:01:27;99422.59;;;36.75;30.80
20019;BME280;10170;42.502;26.526;2022-08-30T13:04:11;99417.06;;;35.58;31.48
20019;BME280;10170;42.502;26.526;2022-08-30T13:07:04;99418.00;;;34.87;32.02
20019;BME280;10170;42.502;26.526;2022-08-30T13:12:20;99417.25;;;35.42;31.84
20019;BME280;10170;42.502;26.526;2022-08-30T13:14:48;99400.84;;;35.93;31.14
20019;BME280;10170;42.502;26.526;2022-08-30T13:25:32;99395.19;;;36.19;29.32
20019;BME280;10170;42.502;26.526;2022-08-30T13:28:00;99395.06;;;36.52;28.66
20019;BME280;10170;42.502;26.526;2022-08-30T13:30:28;99395.94;;;37.18;28.62
20019;BME280;10170;42.502;26.526;2022-08-30T13:32:55;99392.25;;;37.85;28.06
20019;BME280;10170;42.502;26.526;2022-08-30T13:35:22;99372.94;;;37.17;27.79
20019;BME280;10170;42.502;26.526;2022-08-30T13:37:49;99381.16;;;37.89;26.88
20019;BME280;10170;42.502;26.526;2022-08-30T13:40:19;99380.75;;;37.83;26.13
20019;BME280;10170;42.502;26.526;2022-08-30T13:42:47;99378.38;;;37.99;25.80
20019;BME280;10170;42.502;26.526;2022-08-30T13:45:15;99370.03;;;37.82;26.26
20019;BME280;10170;42.502;26.526;2022-08-30T13:48:02;99368.47;;;37.91;26.10
20019;BME280;10170;42.502;26.526;2022-08-30T13:50:31;99331.16;;;38.63;26.08
20019;BME280;10170;42.502;26.526;2022-08-30T13:52:59;99362.53;;;38.25;27.18
20019;BME280;10170;42.502;26.526;2022-08-30T13:55:26;99371.28;;;38.37;27.56
20019;BME280;10170;42.502;26.526;2022-08-30T13:57:53;99362.84;;;39.08;27.90
20019;BME280;10170;42.502;26.526;2022-08-30T14:00:23;99353.38;;;38.59;30.90
20019;BME280;10170;42.502;26.526;2022-08-30T14:02:51;99357.34;;;38.58;30.68
20019;BME280;10170;42.502;26.526;2022-08-30T14:05:29;99360.00;;;37.49;31.66
20019;BME280;10170;42.502;26.526;2022-08-30T14:08:22;99356.38;;;37.35;32.74
20019;BME280;10170;42.502;26.526;2022-08-30T14:11:10;99360.31;;;36.62;35.46
20019;BME280;10170;42.502;26.526;2022-08-30T14:13:39;99357.03;;;34.76;38.32
20019;BME280;10170;42.502;26.526;2022-08-30T14:16:29;99364.78;;;33.73;40.06
20019;BME280;10170;42.502;26.526;2022-08-30T14:18:58;99370.00;;;32.86;42.94
20019;BME280;10170;42.502;26.526;2022-08-30T14:21:26;99337.72;;;32.68;43.22
20019;BME280;10170;42.502;26.526;2022-08-30T14:23:54;99359.13;;;33.09;42.76
20019;BME280;10170;42.502;26.526;2022-08-30T14:26:37;99356.28;;;32.71;42.83
20019;BME280;10170;42.502;26.526;2022-08-30T14:29:08;99349.28;;;32.58;43.08
20019;BME280;10170;42.502;26.526;2022-08-30T14:31:37;99350.16;;;32.62;43.69
20019;BME280;10170;42.502;26.526;2022-08-30T14:34:06;99366.88;;;32.53;44.18
20019;BME280;10170;42.502;26.526;2022-08-30T14:36:35;99352.25;;;32.68;43.69
20019;BME280;10170;42.502;26.526;2022-08-30T14:39:04;99362.31;;;32.76;43.60
20019;BME280;10170;42.502;26.526;2022-08-30T14:41:38;99358.94;;;32.67;43.29
20019;BME280;10170;42.502;26.526;2022-08-30T14:44:10;99356.91;;;32.64;43.76
20019;BME280;10170;42.502;26.526;2022-08-30T14:46:37;99355.91;;;32.72;43.93
20019;BME280;10170;42.502;26.526;2022-08-30T14:49:05;99346.16;;;32.59;43.75
20019;BME280;10170;42.502;26.526;2022-08-30T14:51:38;99355.13;;;32.25;44.33
20019;BME280;10170;42.502;26.526;2022-08-30T14:54:05;99337.22;;;32.00;44.64
20019;BME280;10170;42.502;26.526;2022-08-30T14:56:33;99353.91;;;32.23;45.00
20019;BME280;10170;42.502;26.526;2022-08-30T14:59:00;99338.19;;;31.92;45.50
20019;BME280;10170;42.502;26.526;2022-08-30T15:01:29;99348.31;;;32.03;44.68